createdAt,value
2018-12-16T00:01:36.584Z,101036.23
2018-12-16T00:02:42.292Z,101027.42
2018-12-16T00:03:48.039Z,101026.21
2018-12-16T00:04:53.466Z,101029.52
2018-12-16T00:05:58.882Z,101024.41
2018-12-16T00:07:04.288Z,101019.41
2018-12-16T00:08:09.991Z,101019.91
2018-12-16T00:09:15.572Z,101029.05
2018-12-16T00:10:21.132Z,101021.93
2018-12-16T00:11:26.516Z,101023.09
2018-12-16T00:12:31.933Z,101018.95
2018-12-16T00:13:37.411Z,101027.75
2018-12-16T00:14:43.611Z,101024.41
2018-12-16T00:15:49.241Z,101028.18
2018-12-16T00:16:54.880Z,101031.20
2018-12-16T00:18:00.275Z,101021.17
2018-12-16T00:19:05.870Z,101027.59
2018-12-16T00:20:11.763Z,101029.98
2018-12-16T00:21:18.481Z,101031.41
2018-12-16T00:22:29.750Z,101038.95
2018-12-16T00:23:31.610Z,101035.18
2018-12-16T00:24:37.110Z,101042.23
2018-12-16T00:25:42.563Z,101036.94
2018-12-16T00:27:13.573Z,101043.23
2018-12-16T00:28:19.020Z,101035.22
2018-12-16T00:29:24.459Z,101032.33
2018-12-16T00:30:29.951Z,101030.36
2018-12-16T00:31:35.338Z,101023.48
2018-12-16T00:32:40.990Z,101029.35
2018-12-16T00:33:46.432Z,101020.47
2018-12-16T00:34:51.872Z,101020.13
2018-12-16T00:35:57.426Z,101028.94
2018-12-16T00:37:02.828Z,101033.67
2018-12-16T00:38:08.660Z,101028.89
2018-12-16T00:39:14.165Z,101029.86
2018-12-16T00:40:19.625Z,101019.53
2018-12-16T00:41:25.076Z,101022.17
2018-12-16T00:42:30.516Z,101018.78
2018-12-16T00:43:36.128Z,101017.13
2018-12-16T00:44:41.463Z,101012.81
2018-12-16T00:45:46.898Z,101009.04
2018-12-16T00:46:52.386Z,101009.38
2018-12-16T00:47:57.754Z,101008.96
2018-12-16T00:49:03.147Z,101010.22
2018-12-16T00:50:08.767Z,101013.73
2018-12-16T00:51:14.156Z,101004.55
2018-12-16T00:52:19.758Z,101009.96
2018-12-16T00:53:25.191Z,101005.65
2018-12-16T00:54:30.746Z,101004.39
2018-12-16T00:55:36.306Z,101000.69
2018-12-16T00:56:41.731Z,100991.34
2018-12-16T00:57:47.178Z,100985.09
2018-12-16T00:58:52.604Z,100987.48
2018-12-16T00:59:57.999Z,100986.98
2018-12-16T01:01:03.411Z,100984.55
2018-12-16T01:03:34.414Z,100985.05
2018-12-16T01:04:39.946Z,100992.67
2018-12-16T01:05:45.593Z,100986.61
2018-12-16T01:06:51.019Z,100985.47
2018-12-16T01:07:56.466Z,100982.57
2018-12-16T01:09:01.912Z,100981.61
2018-12-16T01:10:08.622Z,100983.38
2018-12-16T01:11:14.031Z,100977.38
2018-12-16T01:12:19.485Z,100980.02
2018-12-16T01:13:25.035Z,100974.68
2018-12-16T01:14:30.557Z,100972.63
2018-12-16T01:15:36.773Z,100980.17
2018-12-16T01:16:42.213Z,100981.52
2018-12-16T01:17:47.624Z,100977.73
2018-12-16T01:18:53.122Z,100987.88
2018-12-16T01:19:58.548Z,100977.39
2018-12-16T01:21:03.935Z,100974.42
2018-12-16T01:22:09.424Z,100972.66
2018-12-16T01:23:14.951Z,100970.22
2018-12-16T01:24:20.424Z,100965.61
2018-12-16T01:25:25.869Z,100963.97
2018-12-16T01:26:31.401Z,100961.83
2018-12-16T01:27:36.807Z,100957.67
2018-12-16T01:28:42.191Z,100961.91
2018-12-16T01:29:47.777Z,100956.06
2018-12-16T01:30:53.247Z,100951.77
2018-12-16T01:31:58.635Z,100946.23
2018-12-16T01:33:04.091Z,100949.63
2018-12-16T01:34:09.509Z,100943.95
2018-12-16T01:35:15.023Z,100951.95
2018-12-16T01:36:20.491Z,100950.70
2018-12-16T01:37:25.960Z,100942.68
2018-12-16T01:38:31.409Z,100941.13
2018-12-16T01:39:36.898Z,100946.54
2018-12-16T01:40:42.291Z,100939.86
2018-12-16T01:41:47.767Z,100944.59
2018-12-16T01:42:53.291Z,100948.37
2018-12-16T01:43:58.712Z,100945.44
2018-12-16T01:45:04.727Z,100945.89
2018-12-16T01:46:10.540Z,100952.98
2018-12-16T01:47:16.076Z,100946.80
2018-12-16T01:48:21.495Z,100942.64
2018-12-16T01:49:26.940Z,100942.68
2018-12-16T01:50:32.369Z,100943.10
2018-12-16T01:51:37.803Z,100942.27
2018-12-16T01:52:49.923Z,100937.64
2018-12-16T01:53:50.684Z,100933.76
2018-12-16T01:54:56.212Z,100933.83
2018-12-16T01:56:01.654Z,100931.77
2018-12-16T01:57:07.033Z,100935.92
2018-12-16T01:58:12.417Z,100939.32
2018-12-16T01:59:17.870Z,100944.02
2018-12-16T02:00:23.775Z,100942.68
2018-12-16T02:01:29.308Z,100936.84
2018-12-16T02:02:34.973Z,100939.78
2018-12-16T02:03:40.426Z,100937.30
2018-12-16T02:04:45.839Z,100928.34
2018-12-16T02:05:51.304Z,100922.08
2018-12-16T02:06:56.735Z,100916.55
2018-12-16T02:08:02.427Z,100920.75
2018-12-16T02:09:08.161Z,100920.30
2018-12-16T02:10:13.866Z,100917.39
2018-12-16T02:11:19.893Z,100914.14
2018-12-16T02:12:26.254Z,100919.19
2018-12-16T02:13:31.859Z,100918.41
2018-12-16T02:14:37.383Z,100915.45
2018-12-16T02:15:42.790Z,100916.62
2018-12-16T02:16:48.298Z,100909.67
2018-12-16T02:17:54.040Z,100906.67
2018-12-16T02:19:00.001Z,100906.10
2018-12-16T02:20:06.319Z,100904.56
2018-12-16T02:21:11.719Z,100897.02
2018-12-16T02:22:17.142Z,100894.57
2018-12-16T02:23:22.615Z,100891.52
2018-12-16T02:24:28.158Z,100891.63
2018-12-16T02:25:33.622Z,100893.80
2018-12-16T02:26:39.034Z,100889.36
2018-12-16T02:27:44.418Z,100885.66
2018-12-16T02:28:49.837Z,100878.17
2018-12-16T02:29:55.267Z,100876.42
2018-12-16T02:31:00.684Z,100874.39
2018-12-16T02:32:06.110Z,100872.44
2018-12-16T02:33:11.500Z,100874.88
2018-12-16T02:34:16.912Z,100866.88
2018-12-16T02:35:22.403Z,100870.61
2018-12-16T02:36:27.793Z,100863.41
2018-12-16T02:37:33.349Z,100867.64
2018-12-16T02:38:38.762Z,100864.22
2018-12-16T02:39:44.187Z,100858.44
2018-12-16T02:40:49.605Z,100859.28
2018-12-16T02:41:55.025Z,100858.93
2018-12-16T02:43:00.481Z,100853.83
2018-12-16T02:44:05.992Z,100845.50
2018-12-16T02:45:11.512Z,100843.92
2018-12-16T02:46:16.932Z,100843.51
2018-12-16T02:47:22.438Z,100836.76
2018-12-16T02:48:27.854Z,100834.27
2018-12-16T02:49:33.262Z,100830.81
2018-12-16T02:50:38.780Z,100829.14
2018-12-16T02:51:44.195Z,100827.95
2018-12-16T02:52:49.628Z,100827.07
2018-12-16T02:53:55.204Z,100827.98
2018-12-16T02:55:00.689Z,100825.84
2018-12-16T02:56:06.103Z,100828.36
2018-12-16T02:57:11.537Z,100816.71
2018-12-16T02:58:17.046Z,100819.59
2018-12-16T02:59:22.496Z,100814.19
2018-12-16T03:00:27.912Z,100820.59
2018-12-16T03:01:33.298Z,100816.03
2018-12-16T03:02:39.079Z,100810.55
2018-12-16T03:03:44.503Z,100809.73
2018-12-16T03:04:49.989Z,100805.92
2018-12-16T03:05:55.375Z,100810.09
2018-12-16T03:07:00.809Z,100809.31
2018-12-16T03:08:06.340Z,100805.53
2018-12-16T03:09:11.737Z,100796.36
2018-12-16T03:10:17.226Z,100798.73
2018-12-16T03:11:22.656Z,100800.47
2018-12-16T03:12:28.047Z,100793.75
2018-12-16T03:13:33.485Z,100791.27
2018-12-16T03:14:38.863Z,100787.88
2018-12-16T03:15:44.408Z,100792.56
2018-12-16T03:16:49.927Z,100787.52
2018-12-16T03:17:55.456Z,100782.52
2018-12-16T03:19:00.860Z,100792.23
2018-12-16T03:20:07.023Z,100793.04
2018-12-16T03:21:12.890Z,100792.20
2018-12-16T03:22:18.336Z,100781.73
2018-12-16T03:23:23.707Z,100781.73
2018-12-16T03:24:29.124Z,100784.38
2018-12-16T03:25:34.543Z,100776.39
2018-12-16T03:26:39.997Z,100778.08
2018-12-16T03:27:45.399Z,100781.05
2018-12-16T03:28:50.837Z,100779.75
2018-12-16T03:29:56.233Z,100777.66
2018-12-16T03:31:01.661Z,100779.81
2018-12-16T03:32:07.059Z,100774.30
2018-12-16T03:33:12.518Z,100772.64
2018-12-16T03:34:18.115Z,100771.86
2018-12-16T03:35:23.506Z,100777.27
2018-12-16T03:36:28.956Z,100768.86
2018-12-16T03:37:34.363Z,100766.32
2018-12-16T03:38:39.751Z,100763.77
2018-12-16T03:39:45.220Z,100764.58
2018-12-16T03:40:50.703Z,100760.38
2018-12-16T03:41:56.196Z,100758.22
2018-12-16T03:43:01.672Z,100757.86
2018-12-16T03:44:07.056Z,100756.96
2018-12-16T03:45:12.482Z,100750.33
2018-12-16T03:46:17.863Z,100749.94
2018-12-16T03:47:23.262Z,100751.20
2018-12-16T03:48:28.760Z,100744.00
2018-12-16T03:49:34.174Z,100749.08
2018-12-16T03:50:39.574Z,100744.52
2018-12-16T03:51:45.055Z,100746.53
2018-12-16T03:52:50.488Z,100743.25
2018-12-16T03:53:55.920Z,100743.73
2018-12-16T03:55:01.476Z,100743.31
2018-12-16T03:56:06.983Z,100742.89
2018-12-16T03:57:12.404Z,100737.44
2018-12-16T03:58:17.816Z,100741.69
2018-12-16T03:59:23.248Z,100743.81
2018-12-16T04:00:28.644Z,100745.50
2018-12-16T04:01:34.045Z,100740.42
2018-12-16T04:02:39.454Z,100740.79
2018-12-16T04:03:44.851Z,100741.16
2018-12-16T04:04:50.384Z,100734.94
2018-12-16T04:05:55.973Z,100743.81
2018-12-16T04:07:01.439Z,100734.09
2018-12-16T04:08:06.975Z,100737.07
2018-12-16T04:09:12.414Z,100728.64
2018-12-16T04:10:17.812Z,100731.86
2018-12-16T04:11:23.298Z,100728.30
2018-12-16T04:12:28.760Z,100726.20
2018-12-16T04:13:34.139Z,100728.72
2018-12-16T04:14:41.297Z,100729.98
2018-12-16T04:15:46.965Z,100726.92
2018-12-16T04:16:52.422Z,100731.98
2018-12-16T04:17:57.830Z,100724.73
2018-12-16T04:19:03.234Z,100730.16
2018-12-16T04:20:08.928Z,100728.55
2018-12-16T04:21:14.459Z,100716.04
2018-12-16T04:22:20.320Z,100723.32
2018-12-16T04:23:27.624Z,100720.74
2018-12-16T04:24:33.220Z,100721.58
2018-12-16T04:25:38.659Z,100718.02
2018-12-16T04:26:44.171Z,100720.51
2018-12-16T04:27:49.724Z,100721.80
2018-12-16T04:28:55.157Z,100726.05
2018-12-16T04:30:00.595Z,100724.82
2018-12-16T04:31:06.063Z,100722.66
2018-12-16T04:32:11.513Z,100715.63
2018-12-16T04:33:16.990Z,100710.97
2018-12-16T04:34:22.539Z,100720.30
2018-12-16T04:35:28.133Z,100713.91
2018-12-16T04:36:33.605Z,100708.94
2018-12-16T04:37:39.019Z,100709.75
2018-12-16T04:38:44.427Z,100706.80
2018-12-16T04:39:49.899Z,100706.72
2018-12-16T04:40:55.385Z,100708.84
2018-12-16T04:42:00.806Z,100700.92
2018-12-16T04:43:06.185Z,100706.86
2018-12-16T04:44:11.639Z,100703.90
2018-12-16T04:45:17.059Z,100699.61
2018-12-16T04:46:22.899Z,100701.20
2018-12-16T04:47:28.397Z,100699.10
2018-12-16T04:48:33.915Z,100701.63
2018-12-16T04:49:39.356Z,100697.39
2018-12-16T04:50:44.770Z,100696.92
2018-12-16T04:51:50.235Z,100696.92
2018-12-16T04:52:55.636Z,100694.28
2018-12-16T04:54:01.029Z,100698.00
2018-12-16T04:55:06.618Z,100693.70
2018-12-16T04:56:12.405Z,100694.13
2018-12-16T04:57:17.925Z,100692.36
2018-12-16T04:58:23.333Z,100693.26
2018-12-16T04:59:28.733Z,100692.84
2018-12-16T05:00:34.166Z,100693.20
2018-12-16T05:01:39.940Z,100689.81
2018-12-16T05:02:45.437Z,100686.75
2018-12-16T05:03:50.868Z,100687.97
2018-12-16T05:04:56.302Z,100685.52
2018-12-16T05:06:01.722Z,100690.48
2018-12-16T05:07:07.255Z,100683.42
2018-12-16T05:08:12.831Z,100682.52
2018-12-16T05:09:18.358Z,100679.55
2018-12-16T05:10:30.312Z,100680.84
2018-12-16T05:11:36.806Z,100685.84
2018-12-16T05:12:42.388Z,100681.11
2018-12-16T05:13:47.805Z,100677.17
2018-12-16T05:14:53.219Z,100676.69
2018-12-16T05:15:58.728Z,100676.23
2018-12-16T05:17:04.148Z,100677.17
2018-12-16T05:18:09.774Z,100680.14
2018-12-16T05:19:15.203Z,100672.91
2018-12-16T05:20:20.748Z,100666.66
2018-12-16T05:21:26.146Z,100675.01
2018-12-16T05:22:31.678Z,100669.49
2018-12-16T05:23:41.784Z,100663.69
2018-12-16T05:25:47.844Z,100664.05
2018-12-16T05:26:53.215Z,100666.84
2018-12-16T05:27:58.635Z,100668.59
2018-12-16T05:29:04.185Z,100665.17
2018-12-16T05:30:09.984Z,100663.94
2018-12-16T05:31:15.427Z,100664.33
2018-12-16T05:32:20.912Z,100669.01
2018-12-16T05:33:26.392Z,100665.69
2018-12-16T05:34:31.824Z,100668.17
2018-12-16T05:35:37.397Z,100662.55
2018-12-16T05:36:43.663Z,100668.03
2018-12-16T05:37:49.078Z,100669.27
2018-12-16T05:38:54.559Z,100667.23
2018-12-16T05:40:00.116Z,100662.59
2018-12-16T05:41:05.563Z,100668.42
2018-12-16T05:42:11.054Z,100668.36
2018-12-16T05:43:16.596Z,100670.52
2018-12-16T05:44:22.034Z,100664.23
2018-12-16T05:45:27.525Z,100663.87
2018-12-16T05:46:33.218Z,100662.23
2018-12-16T05:47:38.674Z,100661.33
2018-12-16T05:48:44.082Z,100667.27
2018-12-16T05:49:49.875Z,100669.39
2018-12-16T05:50:55.482Z,100667.43
2018-12-16T05:52:00.980Z,100659.44
2018-12-16T05:53:06.380Z,100656.50
2018-12-16T05:54:11.835Z,100665.69
2018-12-16T05:55:17.360Z,100655.59
2018-12-16T05:56:22.999Z,100659.02
2018-12-16T05:57:28.431Z,100654.85
2018-12-16T05:58:33.880Z,100659.02
2018-12-16T05:59:39.395Z,100653.23
2018-12-16T06:00:44.835Z,100655.27
2018-12-16T06:01:50.424Z,100652.95
2018-12-16T06:02:55.847Z,100653.33
2018-12-16T06:04:01.291Z,100654.56
2018-12-16T06:05:07.188Z,100658.01
2018-12-16T06:06:12.720Z,100658.43
2018-12-16T06:07:18.288Z,100654.52
2018-12-16T06:08:24.191Z,100655.43
2018-12-16T06:09:29.615Z,100659.37
2018-12-16T06:10:35.077Z,100658.59
2018-12-16T06:11:40.560Z,100657.20
2018-12-16T06:12:46.057Z,100652.66
2018-12-16T06:13:51.678Z,100648.59
2018-12-16T06:14:57.191Z,100652.02
2018-12-16T06:16:02.690Z,100652.41
2018-12-16T06:17:08.119Z,100651.17
2018-12-16T06:18:13.912Z,100646.11
2018-12-16T06:19:19.446Z,100648.24
2018-12-16T06:20:24.908Z,100648.05
2018-12-16T06:21:30.316Z,100654.85
2018-12-16T06:22:35.850Z,100655.66
2018-12-16T06:23:42.323Z,100656.98
2018-12-16T06:24:47.763Z,100653.14
2018-12-16T06:25:53.492Z,100657.37
2018-12-16T06:26:58.931Z,100655.30
2018-12-16T06:28:04.325Z,100656.17
2018-12-16T06:29:10.557Z,100652.91
2018-12-16T06:30:16.513Z,100649.85
2018-12-16T06:31:22.104Z,100656.98
2018-12-16T06:32:28.469Z,100655.44
2018-12-16T06:33:33.923Z,100658.75
2018-12-16T06:34:39.368Z,100657.05
2018-12-16T06:35:44.869Z,100658.63
2018-12-16T06:36:50.295Z,100652.44
2018-12-16T06:37:55.792Z,100654.17
2018-12-16T06:39:01.217Z,100647.88
2018-12-16T06:40:07.206Z,100654.66
2018-12-16T06:41:12.855Z,100652.14
2018-12-16T06:42:18.286Z,100650.46
2018-12-16T06:43:23.805Z,100654.63
2018-12-16T06:44:29.656Z,100653.43
2018-12-16T06:45:35.120Z,100656.33
2018-12-16T06:46:40.781Z,100653.84
2018-12-16T06:47:46.275Z,100656.42
2018-12-16T06:48:51.874Z,100653.81
2018-12-16T06:49:57.394Z,100653.07
2018-12-16T06:51:02.838Z,100658.55
2018-12-16T06:52:08.339Z,100652.27
2018-12-16T06:53:13.807Z,100651.36
2018-12-16T06:54:19.256Z,100653.10
2018-12-16T06:55:24.712Z,100654.81
2018-12-16T06:56:30.172Z,100649.72
2018-12-16T06:57:35.757Z,100649.00
2018-12-16T06:58:41.154Z,100651.52
2018-12-16T06:59:46.628Z,100656.55
2018-12-16T07:00:52.034Z,100654.45
2018-12-16T07:03:16.235Z,100660.27
2018-12-16T07:04:21.753Z,100656.12
2018-12-16T07:05:27.187Z,100653.64
2018-12-16T07:06:32.682Z,100652.84
2018-12-16T07:07:38.087Z,100657.03
2018-12-16T07:08:43.619Z,100651.88
2018-12-16T07:09:49.149Z,100659.91
2018-12-16T07:10:54.585Z,100651.55
2018-12-16T07:12:00.044Z,100651.88
2018-12-16T07:13:05.520Z,100644.14
2018-12-16T07:14:11.001Z,100648.27
2018-12-16T07:15:16.551Z,100647.50
2018-12-16T07:16:22.042Z,100649.79
2018-12-16T07:17:27.454Z,100652.02
2018-12-16T07:18:32.967Z,100649.14
2018-12-16T07:19:38.416Z,100656.36
2018-12-16T07:20:43.976Z,100653.05
2018-12-16T07:21:49.511Z,100652.14
2018-12-16T07:22:55.028Z,100648.75
2018-12-16T07:24:00.487Z,100653.43
2018-12-16T07:25:06.144Z,100652.56
2018-12-16T07:26:11.588Z,100659.23
2018-12-16T07:27:17.191Z,100659.33
2018-12-16T07:28:22.648Z,100658.08
2018-12-16T07:29:28.037Z,100661.04
2018-12-16T07:30:33.843Z,100658.10
2018-12-16T07:31:39.441Z,100666.13
2018-12-16T07:32:44.830Z,100662.30
2018-12-16T07:33:50.413Z,100668.14
2018-12-16T07:34:55.910Z,100666.13
2018-12-16T07:36:01.366Z,100664.06
2018-12-16T07:37:07.017Z,100662.91
2018-12-16T07:38:12.452Z,100667.13
2018-12-16T07:39:17.931Z,100659.19
2018-12-16T07:40:23.878Z,100672.67
2018-12-16T07:41:29.372Z,100669.77
2018-12-16T07:42:34.967Z,100666.08
2018-12-16T07:43:40.437Z,100668.27
2018-12-16T07:44:46.395Z,100668.09
2018-12-16T07:45:51.838Z,100665.57
2018-12-16T07:47:00.145Z,100667.40
2018-12-16T07:48:07.561Z,100666.92
2018-12-16T07:49:13.175Z,100667.37
2018-12-16T07:50:18.874Z,100664.41
2018-12-16T07:51:25.206Z,100664.37
2018-12-16T07:52:30.729Z,100660.59
2018-12-16T07:53:36.496Z,100659.22
2018-12-16T07:54:41.996Z,100668.13
2018-12-16T07:55:47.633Z,100661.91
2018-12-16T07:56:53.113Z,100660.63
2018-12-16T07:57:58.569Z,100662.75
2018-12-16T07:59:04.182Z,100659.39
2018-12-16T08:00:12.215Z,100662.81
2018-12-16T08:01:17.717Z,100662.84
2018-12-16T08:02:23.283Z,100655.34
2018-12-16T08:03:28.770Z,100660.44
2018-12-16T08:04:34.248Z,100658.77
2018-12-16T08:05:40.241Z,100660.83
2018-12-16T08:06:52.374Z,100665.08
2018-12-16T08:07:57.920Z,100664.72
2018-12-16T08:09:04.312Z,100660.52
2018-12-16T08:10:09.985Z,100669.53
2018-12-16T08:11:15.444Z,100669.05
2018-12-16T08:12:20.956Z,100666.17
2018-12-16T08:13:26.403Z,100667.87
2018-12-16T08:14:31.885Z,100665.36
2018-12-16T08:15:37.283Z,100666.59
2018-12-16T08:16:42.707Z,100673.36
2018-12-16T08:17:48.224Z,100669.64
2018-12-16T08:18:53.823Z,100672.88
2018-12-16T08:19:59.247Z,100677.59
2018-12-16T08:21:04.915Z,100672.07
2018-12-16T08:22:10.481Z,100670.06
2018-12-16T08:23:16.024Z,100672.64
2018-12-16T08:24:23.302Z,100675.63
2018-12-16T08:25:29.163Z,100667.18
2018-12-16T08:26:34.635Z,100667.18
2018-12-16T08:27:40.146Z,100672.78
2018-12-16T08:28:45.600Z,100669.84
2018-12-16T08:29:51.088Z,100673.36
2018-12-16T08:30:56.629Z,100673.72
2018-12-16T08:32:02.066Z,100666.98
2018-12-16T08:33:07.554Z,100677.61
2018-12-16T08:34:13.260Z,100671.73
2018-12-16T08:35:21.744Z,100676.66
2018-12-16T08:36:27.269Z,100674.17
2018-12-16T08:37:33.235Z,100679.69
2018-12-16T08:38:38.870Z,100677.50
2018-12-16T08:39:44.355Z,100674.11
2018-12-16T08:40:51.245Z,100672.52
2018-12-16T08:41:56.725Z,100673.81
2018-12-16T08:43:02.245Z,100673.90
2018-12-16T08:44:08.424Z,100672.64
2018-12-16T08:45:13.862Z,100676.02
2018-12-16T08:46:19.671Z,100676.53
2018-12-16T08:47:25.122Z,100675.23
2018-12-16T08:48:30.582Z,100674.55
2018-12-16T08:49:35.974Z,100680.92
2018-12-16T08:50:41.351Z,100685.73
2018-12-16T08:51:46.959Z,100682.43
2018-12-16T08:52:52.395Z,100685.73
2018-12-16T08:53:57.830Z,100680.64
2018-12-16T08:55:03.484Z,100681.39
2018-12-16T08:56:08.944Z,100680.25
2018-12-16T08:57:14.480Z,100680.34
2018-12-16T08:58:20.074Z,100677.84
2018-12-16T08:59:25.557Z,100678.21
2018-12-16T09:00:30.955Z,100674.87
2018-12-16T09:01:36.374Z,100671.44
2018-12-16T09:02:41.999Z,100679.52
2018-12-16T09:03:48.139Z,100672.83
2018-12-16T09:04:53.668Z,100674.23
2018-12-16T09:05:59.120Z,100673.92
2018-12-16T09:07:04.628Z,100677.73
2018-12-16T09:08:10.092Z,100673.00
2018-12-16T09:09:15.789Z,100673.95
2018-12-16T09:10:21.484Z,100676.14
2018-12-16T09:11:27.043Z,100677.84
2018-12-16T09:12:32.640Z,100677.00
2018-12-16T09:13:38.128Z,100677.84
2018-12-16T09:14:43.672Z,100676.33
2018-12-16T09:15:49.263Z,100677.55
2018-12-16T09:16:54.690Z,100676.33
2018-12-16T09:18:01.048Z,100681.06
2018-12-16T09:19:06.592Z,100674.31
2018-12-16T09:20:12.157Z,100681.98
2018-12-16T09:21:18.017Z,100680.00
2018-12-16T09:22:23.628Z,100680.00
2018-12-16T09:23:29.055Z,100681.28
2018-12-16T09:24:37.432Z,100687.25
2018-12-16T09:25:42.147Z,100686.48
2018-12-16T09:26:47.652Z,100684.44
2018-12-16T09:27:53.085Z,100688.22
2018-12-16T09:28:58.479Z,100686.91
2018-12-16T09:30:04.393Z,100684.92
2018-12-16T09:31:09.939Z,100688.78
2018-12-16T09:32:15.494Z,100688.70
2018-12-16T09:33:20.992Z,100683.19
2018-12-16T09:34:26.654Z,100680.72
2018-12-16T09:35:32.095Z,100685.02
2018-12-16T09:36:37.559Z,100685.08
2018-12-16T09:37:42.995Z,100685.39
2018-12-16T09:38:48.527Z,100683.13
2018-12-16T09:39:54.078Z,100685.65
2018-12-16T09:40:59.726Z,100681.48
2018-12-16T09:42:05.215Z,100683.58
2018-12-16T09:43:10.708Z,100683.05
2018-12-16T09:44:16.182Z,100684.67
2018-12-16T09:45:21.615Z,100687.70
2018-12-16T09:46:27.024Z,100687.94
2018-12-16T09:47:32.620Z,100692.17
2018-12-16T09:48:38.093Z,100687.16
2018-12-16T09:49:43.500Z,100688.88
2018-12-16T09:50:49.116Z,100689.34
2018-12-16T09:51:54.616Z,100688.59
2018-12-16T09:53:00.180Z,100686.09
2018-12-16T09:54:05.616Z,100690.43
2018-12-16T09:55:11.148Z,100685.89
2018-12-16T09:56:16.592Z,100690.17
2018-12-16T09:57:22.395Z,100684.73
2018-12-16T09:58:27.959Z,100684.81
2018-12-16T09:59:33.582Z,100684.63
2018-12-16T10:00:39.043Z,100685.48
2018-12-16T10:01:44.483Z,100677.52
2018-12-16T10:02:50.048Z,100669.88
2018-12-16T10:03:55.551Z,100666.25
2018-12-16T10:05:01.230Z,100670.98
2018-12-16T10:06:06.682Z,100670.13
2018-12-16T10:07:12.129Z,100685.41
2018-12-16T10:08:17.593Z,100682.13
2018-12-16T10:09:23.085Z,100681.75
2018-12-16T10:10:28.884Z,100677.09
2018-12-16T10:11:34.279Z,100673.81
2018-12-16T10:12:39.719Z,100678.80
2018-12-16T10:13:45.127Z,100677.34
2018-12-16T10:14:50.610Z,100671.27
2018-12-16T10:16:02.339Z,100669.14
2018-12-16T10:17:08.157Z,100667.24
2018-12-16T10:18:13.727Z,100671.94
2018-12-16T10:19:19.217Z,100672.27
2018-12-16T10:20:24.672Z,100669.00
2018-12-16T10:21:30.234Z,100669.00
2018-12-16T10:22:35.653Z,100665.66
2018-12-16T10:23:41.143Z,100656.52
2018-12-16T10:24:51.234Z,100660.22
2018-12-16T10:25:54.007Z,100661.50
2018-12-16T10:26:59.631Z,100664.70
2018-12-16T10:28:05.131Z,100665.54
2018-12-16T10:29:10.557Z,100665.05
2018-12-16T10:30:16.064Z,100666.88
2018-12-16T10:31:21.821Z,100666.17
2018-12-16T10:32:27.286Z,100664.88
2018-12-16T10:33:32.729Z,100665.25
2018-12-16T10:34:38.172Z,100660.00
2018-12-16T10:35:43.599Z,100660.42
2018-12-16T10:36:49.141Z,100660.84
2018-12-16T10:37:54.621Z,100656.32
2018-12-16T10:39:01.790Z,100659.81
2018-12-16T10:40:08.437Z,100651.91
2018-12-16T10:41:13.875Z,100655.39
2018-12-16T10:42:19.396Z,100657.98
2018-12-16T10:43:24.919Z,100659.75
2018-12-16T10:44:30.348Z,100654.68
2018-12-16T10:45:35.870Z,100657.22
2018-12-16T10:46:41.323Z,100654.68
2018-12-16T10:47:46.911Z,100652.07
2018-12-16T10:48:52.355Z,100654.90
2018-12-16T10:49:57.775Z,100655.45
2018-12-16T10:51:03.253Z,100650.51
2018-12-16T10:52:08.834Z,100647.56
2018-12-16T10:53:14.366Z,100652.89
2018-12-16T10:54:19.788Z,100652.18
2018-12-16T10:55:25.260Z,100651.41
2018-12-16T10:56:30.705Z,100652.60
2018-12-16T10:57:36.452Z,100651.84
2018-12-16T10:58:41.951Z,100652.41
2018-12-16T10:59:47.470Z,100655.81
2018-12-16T11:00:58.316Z,100654.91
2018-12-16T11:02:03.759Z,100657.50
2018-12-16T11:03:09.218Z,100652.86
2018-12-16T11:04:14.640Z,100649.91
2018-12-16T11:05:20.246Z,100654.97
2018-12-16T11:06:25.906Z,100648.70
2018-12-16T11:07:31.424Z,100649.17
2018-12-16T11:08:37.328Z,100642.41
2018-12-16T11:09:42.760Z,100644.62
2018-12-16T11:10:48.201Z,100646.64
2018-12-16T11:11:53.619Z,100651.55
2018-12-16T11:12:59.435Z,100646.17
2018-12-16T11:14:05.096Z,100642.03
2018-12-16T11:15:10.530Z,100646.67
2018-12-16T11:16:15.955Z,100645.44
2018-12-16T11:17:21.407Z,100647.19
2018-12-16T11:18:26.933Z,100645.48
2018-12-16T11:19:32.487Z,100645.89
2018-12-16T11:20:37.933Z,100648.50
2018-12-16T11:21:43.337Z,100649.69
2018-12-16T11:22:48.771Z,100648.04
2018-12-16T11:23:54.206Z,100654.84
2018-12-16T11:25:05.573Z,100649.80
2018-12-16T11:26:08.528Z,100642.23
2018-12-16T11:27:13.957Z,100646.94
2018-12-16T11:28:19.410Z,100642.72
2018-12-16T11:29:24.839Z,100643.47
2018-12-16T11:30:30.383Z,100636.98
2018-12-16T11:31:41.948Z,100631.94
2018-12-16T11:32:47.426Z,100635.79
2018-12-16T11:33:52.808Z,100637.14
2018-12-16T11:34:58.228Z,100638.02
2018-12-16T11:36:03.811Z,100638.91
2018-12-16T11:37:09.276Z,100637.16
2018-12-16T11:38:14.752Z,100638.31
2018-12-16T11:39:20.264Z,100641.25
2018-12-16T11:40:25.871Z,100639.57
2018-12-16T11:41:31.327Z,100639.98
2018-12-16T11:42:37.001Z,100640.41
2018-12-16T11:43:42.962Z,100639.55
2018-12-16T11:44:48.477Z,100632.39
2018-12-16T11:45:54.100Z,100633.67
2018-12-16T11:46:59.604Z,100637.09
2018-12-16T11:48:05.177Z,100624.08
2018-12-16T11:49:10.742Z,100627.92
2018-12-16T11:50:16.186Z,100627.09
2018-12-16T11:51:21.659Z,100630.10
2018-12-16T11:52:27.184Z,100627.67
2018-12-16T11:53:32.672Z,100625.91
2018-12-16T11:54:38.204Z,100620.88
2018-12-16T11:55:43.722Z,100624.30
2018-12-16T11:56:49.465Z,100630.61
2018-12-16T11:57:54.965Z,100628.55
2018-12-16T11:59:00.653Z,100628.59
2018-12-16T12:00:07.652Z,100626.88
2018-12-16T12:01:13.120Z,100628.41
2018-12-16T12:02:18.591Z,100624.16
2018-12-16T12:03:24.016Z,100625.92
2018-12-16T12:04:29.863Z,100627.17
2018-12-16T12:05:35.424Z,100628.47
2018-12-16T12:06:40.947Z,100622.20
2018-12-16T12:07:46.494Z,100623.73
2018-12-16T12:08:52.126Z,100619.77
2018-12-16T12:09:57.691Z,100620.18
2018-12-16T12:11:03.259Z,100619.45
2018-12-16T12:12:08.766Z,100622.00
2018-12-16T12:13:14.324Z,100616.58
2018-12-16T12:14:19.744Z,100622.99
2018-12-16T12:15:25.281Z,100629.78
2018-12-16T12:16:30.713Z,100625.19
2018-12-16T12:17:36.227Z,100622.99
2018-12-16T12:18:41.678Z,100628.47
2018-12-16T12:19:47.424Z,100624.11
2018-12-16T12:20:52.888Z,100628.99
2018-12-16T12:22:04.257Z,100623.09
2018-12-16T12:23:06.015Z,100627.36
2018-12-16T12:24:11.484Z,100629.91
2018-12-16T12:25:20.021Z,100618.64
2018-12-16T12:26:24.500Z,100619.06
2018-12-16T12:27:30.067Z,100621.98
2018-12-16T12:28:35.707Z,100625.34
2018-12-16T12:29:41.306Z,100621.61
2018-12-16T12:30:46.755Z,100623.36
2018-12-16T12:31:52.289Z,100620.05
2018-12-16T12:32:57.951Z,100629.30
2018-12-16T12:34:03.367Z,100628.88